Time;durP1;ratioP1;P1;durP2;ratioP2;P2;SDS_P1;SDS_P2;PMS_P1;PMS_P2;Temp;Humidity;BMP_temperature;BMP_pressure;BME280_temperature;BME280_humidity;BME280_pressure;Samples;Min_cycle;Max_cycle;Signal;HPM_P1;HPM_P2
2023/12/20 00:01:09;;;;;;;28.55;16.30;;;;;;;;;;5072749;28;20429;-79
2023/12/20 00:03:35;;;;;;;22.90;15.13;;;;;;;;;;5072403;28;20071;-80
2023/12/20 00:06:02;;;;;;;20.25;13.75;;;;;;;;;;5073438;28;20059;-80
2023/12/20 00:08:29;;;;;;;22.08;15.02;;;;;;;;;;5072092;28;20072;-80
2023/12/20 00:10:57;;;;;;;26.02;16.55;;;;;;;;;;5061769;28;20044;-80
2023/12/20 00:13:24;;;;;;;28.05;17.08;;;;;;;;;;5071826;28;20409;-80
2023/12/20 00:15:51;;;;;;;23.83;15.43;;;;;;;;;;5069901;28;20048;-79
2023/12/20 00:18:18;;;;;;;28.15;16.08;;;;;;;;;;5071850;28;20052;-80
2023/12/20 00:20:45;;;;;;;22.25;13.95;;;;;;;;;;5072789;28;20397;-80
2023/12/20 00:23:12;;;;;;;16.85;11.40;;;;;;;;;;5072004;28;20048;-80
2023/12/20 00:25:39;;;;;;;17.17;9.98;;;;;;;;;;5072427;28;20550;-80
2023/12/20 00:28:07;;;;;;;14.63;9.32;;;;;;;;;;5055133;28;20052;-80
2023/12/20 00:30:34;;;;;;;14.82;9.93;;;;;;;;;;5062698;28;20045;-80
2023/12/20 00:33:01;;;;;;;17.08;10.43;;;;;;;;;;5070224;28;20052;-80
2023/12/20 00:35:27;;;;;;;15.27;10.45;;;;;;;;;;5069559;28;20820;-80
2023/12/20 00:37:54;;;;;;;18.67;11.55;;;;;;;;;;5070110;28;20071;-81
2023/12/20 00:40:22;;;;;;;17.10;11.25;;;;;;;;;;5071409;28;20048;-81
2023/12/20 00:42:49;;;;;;;17.48;11.95;;;;;;;;;;5070282;28;20056;-80
2023/12/20 00:45:17;;;;;;;17.85;12.15;;;;;;;;;;5070509;28;20052;-80
2023/12/20 00:47:44;;;;;;;21.30;13.15;;;;;;;;;;5072554;28;20048;-80
2023/12/20 00:50:10;;;;;;;23.27;13.90;;;;;;;;;;5072506;28;20145;-80
2023/12/20 00:52:37;;;;;;;21.33;14.30;;;;;;;;;;5071942;28;20048;-80
2023/12/20 00:55:04;;;;;;;18.90;13.75;;;;;;;;;;5072040;28;20059;-80
2023/12/20 00:57:31;;;;;;;20.92;14.07;;;;;;;;;;5072181;28;20076;-80
2023/12/20 00:59:58;;;;;;;17.98;13.25;;;;;;;;;;5070995;28;20477;-80
2023/12/20 01:02:26;;;;;;;19.20;13.90;;;;;;;;;;5072002;28;20057;-80
2023/12/20 01:04:53;;;;;;;13.82;11.43;;;;;;;;;;5071797;28;20053;-80
2023/12/20 01:07:20;;;;;;;19.13;12.65;;;;;;;;;;5071907;28;20053;-80
2023/12/20 01:09:46;;;;;;;18.27;12.43;;;;;;;;;;5074623;28;20048;-80
2023/12/20 01:12:13;;;;;;;17.27;11.15;;;;;;;;;;5073176;28;20383;-80
2023/12/20 01:14:40;;;;;;;15.75;10.30;;;;;;;;;;5074079;28;20484;-80
2023/12/20 01:17:07;;;;;;;13.48;10.27;;;;;;;;;;5075059;28;20056;-80
2023/12/20 01:19:35;;;;;;;14.18;9.80;;;;;;;;;;5075885;28;20373;-80
2023/12/20 01:22:02;;;;;;;15.73;9.27;;;;;;;;;;5075313;28;20066;-80
2023/12/20 01:24:28;;;;;;;13.25;8.48;;;;;;;;;;5075259;28;20057;-80
2023/12/20 01:26:55;;;;;;;15.23;7.97;;;;;;;;;;5067581;28;20060;-80
2023/12/20 01:29:22;;;;;;;13.15;8.05;;;;;;;;;;5057822;28;20063;-81
2023/12/20 01:31:49;;;;;;;13.30;7.18;;;;;;;;;;5054996;28;20060;-80
2023/12/20 01:34:16;;;;;;;11.63;6.50;;;;;;;;;;5055442;28;20056;-80
2023/12/20 01:36:44;;;;;;;11.73;6.80;;;;;;;;;;5063249;28;20044;-80
2023/12/20 01:39:11;;;;;;;12.02;6.85;;;;;;;;;;5074776;28;20060;-81
2023/12/20 01:41:38;;;;;;;12.35;7.47;;;;;;;;;;5075144;28;20052;-80
2023/12/20 01:44:05;;;;;;;12.55;7.13;;;;;;;;;;5073212;28;20044;-80
2023/12/20 01:46:32;;;;;;;11.85;7.40;;;;;;;;;;5074847;28;20048;-80
2023/12/20 01:48:59;;;;;;;12.88;7.25;;;;;;;;;;5074979;28;20048;-81
2023/12/20 01:51:27;;;;;;;15.80;8.25;;;;;;;;;;5075125;28;20048;-81
2023/12/20 01:53:56;;;;;;;13.05;7.70;;;;;;;;;;5074963;28;20048;-80
2023/12/20 01:56:22;;;;;;;16.75;8.07;;;;;;;;;;5075305;28;20056;-80
2023/12/20 01:58:49;;;;;;;16.95;8.13;;;;;;;;;;5074457;28;20048;-80
2023/12/20 02:01:16;;;;;;;16.95;8.45;;;;;;;;;;5075138;28;20053;-81
2023/12/20 02:03:43;;;;;;;14.73;8.50;;;;;;;;;;5074413;28;20064;-81
2023/12/20 02:06:10;;;;;;;17.45;8.27;;;;;;;;;;5074988;28;20510;-81
2023/12/20 02:08:37;;;;;;;18.00;9.13;;;;;;;;;;5074953;28;20055;-81
2023/12/20 02:11:05;;;;;;;15.30;8.55;;;;;;;;;;5074623;28;20048;-81
2023/12/20 02:13:32;;;;;;;14.13;8.60;;;;;;;;;;5069432;28;20064;-81
2023/12/20 02:15:59;;;;;;;14.95;8.55;;;;;;;;;;5054581;28;20424;-81
2023/12/20 02:18:24;;;;;;;13.10;7.72;;;;;;;;;;5054340;28;20053;-81
2023/12/20 02:20:51;;;;;;;14.05;6.65;;;;;;;;;;5054390;28;20056;-81
2023/12/20 02:23:19;;;;;;;12.18;6.78;;;;;;;;;;5054175;28;20071;-81
2023/12/20 02:25:46;;;;;;;9.35;5.25;;;;;;;;;;5054305;28;20056;-81
2023/12/20 02:28:13;;;;;;;11.57;5.18;;;;;;;;;;5071095;28;20427;-81
2023/12/20 02:30:40;;;;;;;9.88;4.20;;;;;;;;;;5074260;28;20053;-80
2023/12/20 02:33:08;;;;;;;12.02;4.65;;;;;;;;;;5073884;28;20045;-81
2023/12/20 02:35:35;;;;;;;14.10;4.50;;;;;;;;;;5074208;28;20053;-81
2023/12/20 02:38:02;;;;;;;5.85;3.65;;;;;;;;;;5073886;28;20052;-81
2023/12/20 02:40:30;;;;;;;10.48;4.20;;;;;;;;;;5074109;28;20432;-81
2023/12/20 02:42:57;;;;;;;7.45;3.72;;;;;;;;;;5073254;28;20049;-80
2023/12/20 02:45:23;;;;;;;12.55;4.70;;;;;;;;;;5074271;28;20055;-81
2023/12/20 02:47:50;;;;;;;11.60;4.75;;;;;;;;;;5073895;28;20060;-80
2023/12/20 02:50:17;;;;;;;14.23;4.70;;;;;;;;;;5074281;28;20079;-80
2023/12/20 02:52:45;;;;;;;14.68;5.00;;;;;;;;;;5073952;28;20123;-80
2023/12/20 02:55:12;;;;;;;11.13;4.68;;;;;;;;;;5074264;28;20508;-80
2023/12/20 02:57:41;;;;;;;13.95;5.07;;;;;;;;;;5073212;28;20512;-81
2023/12/20 03:00:09;;;;;;;13.25;5.35;;;;;;;;;;5073756;28;20053;-80
2023/12/20 03:02:35;;;;;;;13.93;6.50;;;;;;;;;;5073740;28;20048;-80
2023/12/20 03:05:02;;;;;;;14.82;8.75;;;;;;;;;;5073000;28;20061;-80
2023/12/20 03:07:29;;;;;;;14.55;8.45;;;;;;;;;;5073382;28;20418;-80
2023/12/20 03:09:56;;;;;;;15.48;9.20;;;;;;;;;;5072880;28;20075;-81
2023/12/20 03:12:22;;;;;;;15.68;9.88;;;;;;;;;;5073017;28;20055;-81
2023/12/20 03:14:51;;;;;;;16.95;9.02;;;;;;;;;;5073269;28;20393;-81
2023/12/20 03:17:18;;;;;;;15.00;9.25;;;;;;;;;;5073340;28;20407;-81
2023/12/20 03:19:45;;;;;;;15.50;9.32;;;;;;;;;;5073617;28;20049;-81
2023/12/20 03:22:12;;;;;;;17.75;8.93;;;;;;;;;;5073690;28;20049;-81
2023/12/20 03:24:39;;;;;;;17.92;9.48;;;;;;;;;;5073422;28;20049;-81
2023/12/20 03:27:05;;;;;;;15.93;8.65;;;;;;;;;;5074301;28;20055;-81
2023/12/20 03:29:32;;;;;;;15.75;8.40;;;;;;;;;;5072374;28;20068;-81
2023/12/20 03:32:00;;;;;;;15.02;7.40;;;;;;;;;;5052927;28;20057;-80
2023/12/20 03:34:29;;;;;;;16.30;7.90;;;;;;;;;;5052842;28;20048;-81
2023/12/20 03:36:55;;;;;;;13.98;7.68;;;;;;;;;;5054966;28;20060;-80
2023/12/20 03:39:22;;;;;;;19.95;8.75;;;;;;;;;;5072957;28;20057;-80
2023/12/20 03:41:49;;;;;;;16.70;7.55;;;;;;;;;;5072888;28;20053;-80
2023/12/20 03:44:18;;;;;;;12.88;7.43;;;;;;;;;;5072669;28;20064;-80
2023/12/20 03:46:46;;;;;;;20.33;8.63;;;;;;;;;;5073037;28;20064;-80
2023/12/20 03:49:14;;;;;;;17.33;7.82;;;;;;;;;;5063688;28;20060;-80
2023/12/20 03:51:42;;;;;;;17.13;7.85;;;;;;;;;;5052304;28;20053;-80
2023/12/20 03:54:09;;;;;;;18.77;7.93;;;;;;;;;;5052224;28;20375;-80
2023/12/20 03:56:36;;;;;;;16.27;7.60;;;;;;;;;;5052440;28;20064;-80
2023/12/20 03:59:02;;;;;;;19.85;7.75;;;;;;;;;;5066522;28;20059;-80
2023/12/20 04:01:29;;;;;;;17.05;7.05;;;;;;;;;;5072664;28;20485;-80
2023/12/20 04:03:56;;;;;;;17.60;7.10;;;;;;;;;;5072103;28;20405;-81
2023/12/20 04:06:25;;;;;;;11.20;7.00;;;;;;;;;;5072513;28;20055;-80
2023/12/20 04:08:52;;;;;;;16.23;6.13;;;;;;;;;;5072436;28;20052;-80
2023/12/20 04:11:18;;;;;;;18.48;6.63;;;;;;;;;;5072012;28;20489;-80
2023/12/20 04:13:45;;;;;;;14.70;6.10;;;;;;;;;;5072009;28;20059;-80
2023/12/20 04:16:12;;;;;;;14.75;5.78;;;;;;;;;;5072067;28;20489;-80
2023/12/20 04:18:39;;;;;;;14.05;5.68;;;;;;;;;;5072455;28;20105;-80
2023/12/20 04:21:06;;;;;;;12.52;6.32;;;;;;;;;;5072304;28;20052;-80
2023/12/20 04:23:34;;;;;;;15.77;5.40;;;;;;;;;;5072129;28;20403;-80
2023/12/20 04:26:01;;;;;;;11.75;6.25;;;;;;;;;;5071353;28;20053;-80
2023/12/20 04:28:30;;;;;;;14.75;6.07;;;;;;;;;;5064992;28;20347;-81
2023/12/20 04:30:56;;;;;;;14.15;6.72;;;;;;;;;;5071946;28;20059;-81
2023/12/20 04:33:23;;;;;;;16.33;7.32;;;;;;;;;;5072292;28;20067;-80
2023/12/20 04:35:50;;;;;;;18.60;7.68;;;;;;;;;;5072020;28;20486;-81
2023/12/20 04:38:18;;;;;;;18.10;8.85;;;;;;;;;;5072364;28;20417;-81
2023/12/20 04:40:46;;;;;;;22.40;9.13;;;;;;;;;;5072099;28;20497;-81
2023/12/20 04:43:13;;;;;;;23.65;9.82;;;;;;;;;;5072530;28;20453;-80
2023/12/20 04:45:40;;;;;;;15.68;9.32;;;;;;;;;;5076332;28;20066;-81
2023/12/20 04:48:07;;;;;;;18.77;9.90;;;;;;;;;;5076013;28;20063;-81
2023/12/20 04:50:34;;;;;;;27.08;10.32;;;;;;;;;;5075987;28;20052;-80
2023/12/20 04:53:01;;;;;;;19.58;10.73;;;;;;;;;;5076294;28;20055;-81
2023/12/20 04:55:27;;;;;;;17.33;10.68;;;;;;;;;;5076546;28;20063;-80
2023/12/20 04:57:56;;;;;;;20.50;10.48;;;;;;;;;;5071156;28;20056;-81
2023/12/20 05:00:23;;;;;;;23.20;11.23;;;;;;;;;;5056010;28;20063;-80
2023/12/20 05:02:50;;;;;;;24.38;10.90;;;;;;;;;;5055595;28;20064;-80
2023/12/20 05:05:17;;;;;;;21.05;9.90;;;;;;;;;;5055525;28;20057;-80
2023/12/20 05:07:44;;;;;;;24.35;11.23;;;;;;;;;;5055875;28;20060;-80
2023/12/20 05:10:11;;;;;;;26.83;11.30;;;;;;;;;;5056061;28;20052;-81
2023/12/20 05:12:38;;;;;;;20.83;10.82;;;;;;;;;;5060219;28;20432;-80
2023/12/20 05:15:07;;;;;;;22.58;11.30;;;;;;;;;;5075464;28;20052;-81
2023/12/20 05:17:34;;;;;;;24.98;11.27;;;;;;;;;;5075699;28;20094;-81
2023/12/20 05:20:01;;;;;;;24.95;11.10;;;;;;;;;;5075214;28;20489;-81
2023/12/20 05:22:28;;;;;;;19.73;10.95;;;;;;;;;;5065040;28;20406;-80
2023/12/20 05:24:55;;;;;;;19.70;11.05;;;;;;;;;;5055704;28;20064;-81
2023/12/20 05:27:22;;;;;;;24.02;12.10;;;;;;;;;;5066296;28;20485;-81
2023/12/20 05:29:48;;;;;;;15.70;9.57;;;;;;;;;;5072120;28;20045;-81
2023/12/20 05:32:17;;;;;;;21.80;10.40;;;;;;;;;;5075452;28;20060;-81
2023/12/20 05:34:43;;;;;;;19.25;10.77;;;;;;;;;;5075902;28;20067;-81
2023/12/20 05:37:12;;;;;;;17.73;9.88;;;;;;;;;;5074815;28;20059;-81
2023/12/20 05:39:39;;;;;;;24.13;11.13;;;;;;;;;;5075306;28;20438;-80
2023/12/20 05:42:06;;;;;;;21.60;10.80;;;;;;;;;;5074739;28;20048;-80
2023/12/20 05:44:33;;;;;;;24.00;10.13;;;;;;;;;;5074463;28;20080;-80
2023/12/20 05:47:00;;;;;;;24.15;10.98;;;;;;;;;;5074929;28;20067;-81
2023/12/20 05:49:28;;;;;;;25.58;10.43;;;;;;;;;;5075300;28;20048;-80
2023/12/20 05:51:54;;;;;;;21.80;11.73;;;;;;;;;;5075192;28;20045;-80
2023/12/20 05:54:22;;;;;;;20.90;10.98;;;;;;;;;;5073221;28;20052;-80
2023/12/20 05:56:48;;;;;;;19.52;9.80;;;;;;;;;;5074850;28;20052;-80
2023/12/20 05:59:15;;;;;;;21.58;10.43;;;;;;;;;;5068840;28;20052;-81
2023/12/20 06:01:42;;;;;;;21.40;10.32;;;;;;;;;;5074630;28;20048;-80
2023/12/20 06:04:09;;;;;;;19.65;10.18;;;;;;;;;;5074311;28;20048;-81
2023/12/20 06:06:41;;;;;;;18.80;10.20;;;;;;;;;;5074593;28;20056;-81
2023/12/20 06:09:07;;;;;;;18.67;10.13;;;;;;;;;;5074472;28;20076;-80
2023/12/20 06:11:34;;;;;;;21.15;10.93;;;;;;;;;;5074427;28;20066;-80
2023/12/20 06:14:01;;;;;;;20.42;9.75;;;;;;;;;;5073939;28;20056;-80
2023/12/20 06:16:28;;;;;;;22.95;10.05;;;;;;;;;;5074852;28;20063;-81
2023/12/20 06:18:55;;;;;;;19.30;9.70;;;;;;;;;;5073682;28;20053;-81
2023/12/20 06:21:22;;;;;;;21.70;9.32;;;;;;;;;;5073825;28;20095;-80
2023/12/20 06:23:50;;;;;;;21.63;9.43;;;;;;;;;;5073801;28;20056;-80
2023/12/20 06:26:17;;;;;;;21.83;9.48;;;;;;;;;;5071972;28;20070;-80
2023/12/20 06:28:43;;;;;;;25.38;9.43;;;;;;;;;;5073846;28;20065;-80
2023/12/20 06:31:10;;;;;;;19.85;9.10;;;;;;;;;;5074394;28;20067;-81
2023/12/20 06:33:37;;;;;;;22.92;9.70;;;;;;;;;;5074246;28;20505;-81
2023/12/20 06:36:04;;;;;;;18.33;9.10;;;;;;;;;;5074831;28;20428;-81
2023/12/20 06:38:31;;;;;;;21.20;8.70;;;;;;;;;;5073672;28;20052;-80
2023/12/20 06:40:59;;;;;;;24.48;9.30;;;;;;;;;;5073226;28;20056;-80
2023/12/20 06:43:26;;;;;;;21.85;9.57;;;;;;;;;;5063611;28;20120;-81
2023/12/20 06:45:53;;;;;;;19.25;9.43;;;;;;;;;;5053984;28;20044;-80
2023/12/20 06:48:20;;;;;;;20.73;9.25;;;;;;;;;;5071345;28;20359;-80
2023/12/20 06:50:47;;;;;;;21.05;8.52;;;;;;;;;;5073649;28;20056;-80
2023/12/20 06:53:14;;;;;;;17.80;8.77;;;;;;;;;;5074195;28;20501;-79
2023/12/20 06:55:41;;;;;;;22.85;8.85;;;;;;;;;;5073519;28;20052;-79
2023/12/20 06:58:09;;;;;;;19.83;8.45;;;;;;;;;;5073625;28;20056;-82
2023/12/20 07:00:36;;;;;;;20.85;7.97;;;;;;;;;;5072803;28;20485;-82
2023/12/20 07:03:03;;;;;;;21.45;8.70;;;;;;;;;;5073599;28;20413;-81
2023/12/20 07:05:30;;;;;;;21.90;8.25;;;;;;;;;;5072613;28;20067;-79
2023/12/20 07:07:57;;;;;;;15.63;8.15;;;;;;;;;;5073268;28;20485;-79
2023/12/20 07:10:24;;;;;;;18.75;7.53;;;;;;;;;;5068777;28;20064;-80
2023/12/20 07:12:51;;;;;;;19.88;8.00;;;;;;;;;;5072995;28;20052;-79
2023/12/20 07:15:19;;;;;;;16.85;8.32;;;;;;;;;;5073822;28;20397;-80
2023/12/20 07:17:46;;;;;;;18.15;7.45;;;;;;;;;;5073037;28;20060;-81
2023/12/20 07:20:13;;;;;;;15.93;7.15;;;;;;;;;;5073475;28;20044;-80
2023/12/20 07:22:40;;;;;;;22.13;8.40;;;;;;;;;;5073569;28;20060;-79
2023/12/20 07:25:07;;;;;;;18.23;7.88;;;;;;;;;;5073041;28;20056;-80
2023/12/20 07:27:34;;;;;;;17.98;7.60;;;;;;;;;;5073120;28;20073;-79
2023/12/20 07:30:01;;;;;;;24.30;8.07;;;;;;;;;;5073021;28;20064;-79
2023/12/20 07:32:29;;;;;;;16.55;8.07;;;;;;;;;;5072697;28;20508;-79
2023/12/20 07:34:56;;;;;;;20.88;9.00;;;;;;;;;;5073108;28;20057;-80
2023/12/20 07:37:23;;;;;;;17.33;7.57;;;;;;;;;;5072483;28;20056;-80
2023/12/20 07:39:49;;;;;;;24.23;8.65;;;;;;;;;;5072316;28;20045;-78
2023/12/20 07:42:16;;;;;;;20.00;7.70;;;;;;;;;;5071233;28;20413;-80
2023/12/20 07:44:43;;;;;;;20.92;7.63;;;;;;;;;;5069674;28;20052;-80
2023/12/20 07:47:15;;;;;;;23.25;7.85;;;;;;;;;;5071841;28;20048;-80
2023/12/20 07:49:43;;;;;;;19.23;7.63;;;;;;;;;;5067980;28;20123;-80
2023/12/20 07:52:10;;;;;;;21.77;7.10;;;;;;;;;;5070300;28;20060;-80
2023/12/20 07:54:37;;;;;;;19.60;7.10;;;;;;;;;;5072819;28;20053;-80
2023/12/20 07:57:04;;;;;;;15.18;6.20;;;;;;;;;;5072314;28;20385;-79
2023/12/20 07:59:31;;;;;;;14.60;6.22;;;;;;;;;;5071409;28;20052;-79
2023/12/20 08:01:58;;;;;;;14.93;6.32;;;;;;;;;;5071978;28;20516;-79
2023/12/20 08:04:24;;;;;;;15.68;6.28;;;;;;;;;;5065405;28;20068;-79
2023/12/20 08:06:53;;;;;;;18.77;7.20;;;;;;;;;;5060704;28;20053;-79
2023/12/20 08:09:20;;;;;;;17.98;6.60;;;;;;;;;;5063465;28;20059;-79
2023/12/20 08:11:46;;;;;;;17.65;7.65;;;;;;;;;;5071838;28;20063;-78
2023/12/20 08:14:13;;;;;;;16.45;6.57;;;;;;;;;;5071849;28;20049;-79
2023/12/20 08:16:40;;;;;;;18.95;6.57;;;;;;;;;;5071847;28;20115;-79
2023/12/20 08:19:07;;;;;;;16.95;7.03;;;;;;;;;;5076799;28;20393;-80
2023/12/20 08:21:34;;;;;;;17.27;7.25;;;;;;;;;;5069348;28;20052;-79
2023/12/20 08:24:02;;;;;;;22.42;7.78;;;;;;;;;;5078849;28;20045;-79
2023/12/20 08:26:29;;;;;;;21.58;8.05;;;;;;;;;;5069032;28;20049;-79
2023/12/20 08:28:56;;;;;;;16.40;7.70;;;;;;;;;;5078762;28;20056;-79
2023/12/20 08:31:23;;;;;;;18.98;7.25;;;;;;;;;;5077900;28;20059;-79
2023/12/20 08:33:50;;;;;;;16.35;7.22;;;;;;;;;;5079244;28;20063;-79
2023/12/20 08:36:18;;;;;;;18.08;7.75;;;;;;;;;;5077681;28;20059;-80
2023/12/20 08:38:45;;;;;;;17.58;7.65;;;;;;;;;;5079485;28;20059;-81
2023/12/20 08:41:13;;;;;;;21.17;7.53;;;;;;;;;;5078690;28;20071;-80
2023/12/20 08:43:40;;;;;;;20.77;8.45;;;;;;;;;;5078494;28;20040;-80
2023/12/20 08:46:09;;;;;;;19.67;7.63;;;;;;;;;;5079322;28;20052;-81
2023/12/20 08:48:37;;;;;;;18.50;7.78;;;;;;;;;;5077890;28;20059;-80
2023/12/20 08:51:04;;;;;;;13.65;7.32;;;;;;;;;;5061256;28;20052;-81
2023/12/20 08:53:31;;;;;;;14.30;7.10;;;;;;;;;;5078446;28;20053;-82
2023/12/20 08:56:01;;;;;;;15.65;7.28;;;;;;;;;;5079173;28;20048;-80
2023/12/20 08:58:29;;;;;;;18.58;7.15;;;;;;;;;;5078868;28;20060;-81
2023/12/20 09:00:57;;;;;;;23.67;7.70;;;;;;;;;;5078397;28;20060;-81
2023/12/20 09:03:24;;;;;;;20.95;7.72;;;;;;;;;;5078001;28;20051;-80
2023/12/20 09:05:50;;;;;;;22.10;8.25;;;;;;;;;;5078237;28;20060;-81
2023/12/20 09:08:17;;;;;;;23.42;8.10;;;;;;;;;;5078530;28;20401;-82
2023/12/20 09:10:44;;;;;;;17.85;7.75;;;;;;;;;;5079028;28;20048;-81
2023/12/20 09:13:11;;;;;;;16.50;7.28;;;;;;;;;;5077761;28;20508;-78
2023/12/20 09:15:39;;;;;;;14.23;6.93;;;;;;;;;;5077977;28;20049;-76
2023/12/20 09:18:06;;;;;;;17.98;7.95;;;;;;;;;;5077778;28;20056;-76
2023/12/20 09:20:33;;;;;;;19.50;8.10;;;;;;;;;;5077936;28;20048;-76
2023/12/20 09:23:00;;;;;;;15.68;6.95;;;;;;;;;;5077521;28;20402;-77
2023/12/20 09:25:28;;;;;;;22.42;7.40;;;;;;;;;;5074099;28;20479;-77
2023/12/20 09:27:57;;;;;;;19.63;7.43;;;;;;;;;;5058746;28;20052;-83
2023/12/20 09:30:25;;;;;;;17.30;7.13;;;;;;;;;;5068776;28;20405;-89
2023/12/20 09:32:54;;;;;;;16.13;7.88;;;;;;;;;;5077246;28;20055;-92
2023/12/20 09:35:21;;;;;;;19.85;7.15;;;;;;;;;;5079628;28;20480;-94
2023/12/20 09:37:49;;;;;;;18.50;7.40;;;;;;;;;;5077115;28;20497;-83
2023/12/20 09:40:18;;;;;;;14.80;6.57;;;;;;;;;;5076572;28;20470;-88
2023/12/20 09:42:49;;;;;;;16.52;6.65;;;;;;;;;;5076180;28;20052;-88
2023/12/20 09:45:16;;;;;;;17.85;6.50;;;;;;;;;;5075891;28;20059;-88
2023/12/20 09:47:44;;;;;;;16.75;6.07;;;;;;;;;;5077083;28;20059;-88
2023/12/20 09:50:13;;;;;;;17.75;5.53;;;;;;;;;;5076782;28;20056;-88
2023/12/20 09:52:40;;;;;;;19.08;5.88;;;;;;;;;;5077401;28;20049;-88
2023/12/20 09:55:08;;;;;;;16.90;5.88;;;;;;;;;;5076507;28;20488;-88
2023/12/20 09:57:35;;;;;;;17.67;6.15;;;;;;;;;;5076705;28;20052;-89
2023/12/20 10:00:02;;;;;;;17.10;5.25;;;;;;;;;;5074295;28;20049;-89
2023/12/20 10:02:32;;;;;;;14.80;5.68;;;;;;;;;;5076981;28;20053;-89
2023/12/20 10:05:00;;;;;;;14.50;5.10;;;;;;;;;;5076676;28;20052;-80
2023/12/20 10:07:28;;;;;;;14.95;6.00;;;;;;;;;;5077338;28;20060;-88
2023/12/20 10:09:55;;;;;;;21.00;5.55;;;;;;;;;;5077619;28;20052;-87
2023/12/20 10:12:22;;;;;;;15.10;5.63;;;;;;;;;;5076446;28;20052;-83
2023/12/20 10:14:48;;;;;;;16.80;6.45;;;;;;;;;;5072665;28;20060;-79
2023/12/20 10:17:15;;;;;;;16.55;6.88;;;;;;;;;;5075275;28;20063;-80
2023/12/20 10:19:43;;;;;;;16.13;5.55;;;;;;;;;;5074841;28;20053;-79
2023/12/20 10:22:11;;;;;;;13.30;6.00;;;;;;;;;;5075176;28;20070;-80
2023/12/20 10:24:40;;;;;;;13.57;5.97;;;;;;;;;;5074520;28;20052;-80
2023/12/20 10:27:08;;;;;;;14.52;5.50;;;;;;;;;;5074556;28;20048;-81
2023/12/20 10:29:36;;;;;;;15.70;5.03;;;;;;;;;;5073836;28;20486;-81
2023/12/20 10:32:21;;;;;;;21.20;5.05;;;;;;;;;;5074957;28;20079;-80
2023/12/20 10:34:47;;;;;;;19.52;5.63;;;;;;;;;;5075994;28;20056;-86
2023/12/20 10:37:14;;;;;;;11.98;4.72;;;;;;;;;;5075226;28;20056;-81
2023/12/20 10:39:43;;;;;;;13.60;5.25;;;;;;;;;;5074481;28;20106;-80
2023/12/20 10:42:10;;;;;;;13.88;4.75;;;;;;;;;;5074382;28;20052;-81
2023/12/20 10:44:37;;;;;;;16.10;5.50;;;;;;;;;;5074388;28;20057;-80
2023/12/20 10:47:04;;;;;;;13.77;5.35;;;;;;;;;;5074147;28;20051;-80
2023/12/20 10:49:32;;;;;;;14.10;4.80;;;;;;;;;;5072853;28;20055;-80
2023/12/20 10:52:00;;;;;;;14.95;5.28;;;;;;;;;;5074384;28;20056;-80
2023/12/20 10:54:27;;;;;;;15.55;6.05;;;;;;;;;;5054082;28;20068;-80
2023/12/20 10:56:56;;;;;;;20.30;5.88;;;;;;;;;;5055196;28;20049;-81
2023/12/20 10:59:24;;;;;;;15.35;5.32;;;;;;;;;;5074206;28;20056;-81
2023/12/20 11:01:51;;;;;;;13.90;5.57;;;;;;;;;;5074279;28;20061;-81
2023/12/20 11:04:21;;;;;;;13.88;5.60;;;;;;;;;;5073109;28;20071;-81
2023/12/20 11:06:50;;;;;;;17.67;5.72;;;;;;;;;;5073846;28;20053;-86
2023/12/20 11:09:20;;;;;;;18.33;5.90;;;;;;;;;;5073789;28;20075;-77
2023/12/20 11:11:53;;;;;;;14.82;6.63;;;;;;;;;;5075368;28;20481;-88
2023/12/20 11:14:24;;;;;;;22.38;6.95;;;;;;;;;;5074812;28;20053;-87
2023/12/20 11:16:52;;;;;;;14.85;6.05;;;;;;;;;;5062482;28;20504;-82
2023/12/20 11:19:26;;;;;;;20.17;6.30;;;;;;;;;;5053965;28;20057;-83
2023/12/20 11:21:52;;;;;;;12.63;5.43;;;;;;;;;;5052762;28;20048;-83
2023/12/20 11:24:22;;;;;;;12.27;6.22;;;;;;;;;;5053947;28;20057;-84
2023/12/20 11:26:50;;;;;;;;;;;;;;;;;;5054275;28;20431;-83
2023/12/20 11:29:34;;;;;;;19.10;6.95;;;;;;;;;;5066890;28;19936;-82
2023/12/20 11:32:04;;;;;;;17.70;6.45;;;;;;;;;;5073755;28;20059;-83
2023/12/20 11:34:32;;;;;;;21.17;6.88;;;;;;;;;;5073945;28;20045;-83
2023/12/20 11:37:00;;;;;;;15.27;6.93;;;;;;;;;;5073919;28;20374;-84
2023/12/20 11:39:28;;;;;;;14.85;6.45;;;;;;;;;;5073891;28;20057;-84
2023/12/20 11:41:56;;;;;;;19.60;6.93;;;;;;;;;;5073510;28;20063;-84
2023/12/20 11:44:23;;;;;;;17.30;7.60;;;;;;;;;;5073716;28;20056;-84
2023/12/20 11:46:49;;;;;;;18.58;6.93;;;;;;;;;;5073661;28;20048;-84
2023/12/20 11:49:18;;;;;;;18.77;7.07;;;;;;;;;;5073845;28;20507;-85
2023/12/20 11:51:45;;;;;;;20.30;7.88;;;;;;;;;;5054977;28;20075;-84
2023/12/20 11:54:12;;;;;;;16.98;6.85;;;;;;;;;;5072476;28;20151;-84
2023/12/20 11:56:39;;;;;;;18.42;7.40;;;;;;;;;;5072940;28;20060;-85
2023/12/20 11:59:05;;;;;;;20.27;7.88;;;;;;;;;;5072279;28;20497;-84
2023/12/20 12:01:32;;;;;;;15.73;7.50;;;;;;;;;;5072796;28;20059;-84
2023/12/20 12:04:05;;;;;;;18.10;8.00;;;;;;;;;;5072474;28;20075;-84
2023/12/20 12:06:34;;;;;;;15.13;7.72;;;;;;;;;;5073053;28;20504;-84
2023/12/20 12:09:01;;;;;;;16.10;7.47;;;;;;;;;;5072759;28;20048;-84
2023/12/20 12:11:28;;;;;;;20.00;8.27;;;;;;;;;;5072525;28;20065;-85
2023/12/20 12:13:55;;;;;;;15.57;7.30;;;;;;;;;;5059747;28;20079;-85
2023/12/20 12:16:22;;;;;;;16.50;7.20;;;;;;;;;;5052796;28;20057;-85
2023/12/20 12:18:56;;;;;;;18.63;7.97;;;;;;;;;;5052940;28;20080;-85
2023/12/20 12:21:22;;;;;;;17.67;7.47;;;;;;;;;;5053071;28;20061;-84
2023/12/20 12:23:51;;;;;;;18.55;7.80;;;;;;;;;;5053606;28;20056;-84
2023/12/20 12:26:19;;;;;;;15.57;7.60;;;;;;;;;;5053096;28;20446;-84
2023/12/20 12:28:46;;;;;;;15.43;7.55;;;;;;;;;;5066782;28;20048;-84
2023/12/20 12:31:16;;;;;;;19.48;7.55;;;;;;;;;;5073546;28;20057;-84
2023/12/20 12:33:44;;;;;;;14.43;7.47;;;;;;;;;;5073599;28;20508;-84
2023/12/20 12:36:11;;;;;;;19.80;9.32;;;;;;;;;;5072596;28;20052;-84
2023/12/20 12:38:38;;;;;;;21.08;9.55;;;;;;;;;;5071116;28;20052;-84
2023/12/20 12:41:07;;;;;;;23.65;10.38;;;;;;;;;;5069025;28;20397;-84
2023/12/20 12:43:34;;;;;;;20.00;10.10;;;;;;;;;;5063496;28;20056;-84
2023/12/20 12:46:01;;;;;;;17.58;9.40;;;;;;;;;;5057070;28;20053;-84
2023/12/20 12:48:28;;;;;;;19.88;9.45;;;;;;;;;;5072670;28;20053;-84
2023/12/20 12:50:58;;;;;;;16.67;8.63;;;;;;;;;;5071849;28;20056;-84
2023/12/20 12:53:25;;;;;;;19.60;8.55;;;;;;;;;;5073117;28;20056;-83
2023/12/20 12:55:52;;;;;;;14.43;7.25;;;;;;;;;;5072661;28;20056;-84
2023/12/20 12:58:20;;;;;;;14.93;6.80;;;;;;;;;;5072226;28;20048;-83
2023/12/20 13:00:47;;;;;;;16.40;7.20;;;;;;;;;;5072974;28;20056;-84
2023/12/20 13:03:14;;;;;;;16.10;7.18;;;;;;;;;;5072722;28;20056;-84
2023/12/20 13:05:41;;;;;;;14.40;6.93;;;;;;;;;;5071584;28;20055;-83
2023/12/20 13:08:09;;;;;;;16.70;6.68;;;;;;;;;;5075472;28;20061;-83
2023/12/20 13:10:36;;;;;;;14.73;6.38;;;;;;;;;;5076870;28;20053;-84
2023/12/20 13:13:04;;;;;;;14.95;6.75;;;;;;;;;;5076027;28;20057;-83
2023/12/20 13:15:32;;;;;;;18.77;7.30;;;;;;;;;;5076581;28;20059;-84
2023/12/20 13:17:59;;;;;;;14.27;6.25;;;;;;;;;;5076437;28;20056;-82
2023/12/20 13:20:26;;;;;;;16.00;7.03;;;;;;;;;;5076212;28;20406;-83
2023/12/20 13:22:53;;;;;;;17.50;6.50;;;;;;;;;;5075490;28;20059;-84
2023/12/20 13:25:20;;;;;;;16.52;6.60;;;;;;;;;;5076815;28;20063;-84
2023/12/20 13:27:47;;;;;;;10.75;5.53;;;;;;;;;;5076542;28;20056;-84
2023/12/20 13:30:14;;;;;;;15.93;5.97;;;;;;;;;;5075488;28;20072;-84
2023/12/20 13:32:42;;;;;;;13.25;5.78;;;;;;;;;;5077116;28;20052;-83
2023/12/20 13:35:09;;;;;;;11.32;6.53;;;;;;;;;;5076718;28;20504;-84
2023/12/20 13:37:36;;;;;;;17.75;6.82;;;;;;;;;;5075668;28;20057;-83
2023/12/20 13:40:04;;;;;;;15.45;6.78;;;;;;;;;;5076061;28;20063;-84
2023/12/20 13:42:31;;;;;;;15.95;6.07;;;;;;;;;;5075563;28;20053;-84
2023/12/20 13:44:57;;;;;;;16.73;7.18;;;;;;;;;;5075814;28;20049;-83
2023/12/20 13:47:24;;;;;;;14.55;7.07;;;;;;;;;;5075069;28;20065;-84
2023/12/20 13:49:53;;;;;;;17.95;7.50;;;;;;;;;;5066393;28;20062;-84
2023/12/20 13:52:20;;;;;;;17.08;7.05;;;;;;;;;;5055282;28;20053;-82
2023/12/20 13:54:47;;;;;;;16.73;7.18;;;;;;;;;;5055730;28;20470;-83
2023/12/20 13:57:14;;;;;;;19.00;6.68;;;;;;;;;;5055497;28;20417;-83
2023/12/20 13:59:41;;;;;;;17.80;6.95;;;;;;;;;;5068341;28;20060;-83
2023/12/20 14:02:08;;;;;;;13.27;7.45;;;;;;;;;;5075655;28;20056;-83
2023/12/20 14:04:34;;;;;;;17.88;7.03;;;;;;;;;;5075603;28;20048;-84
2023/12/20 14:07:04;;;;;;;12.82;6.95;;;;;;;;;;5074997;28;20048;-83
2023/12/20 14:09:31;;;;;;;12.73;6.03;;;;;;;;;;5074668;28;20059;-83
2023/12/20 14:11:58;;;;;;;12.25;5.95;;;;;;;;;;5075720;28;20064;-84
2023/12/20 14:14:25;;;;;;;12.68;6.68;;;;;;;;;;5073580;28;20055;-84
2023/12/20 14:16:52;;;;;;;14.00;6.88;;;;;;;;;;5074839;28;20114;-84
2023/12/20 14:19:19;;;;;;;10.50;6.47;;;;;;;;;;5075467;28;20060;-84
2023/12/20 14:21:46;;;;;;;10.63;5.05;;;;;;;;;;5074871;28;20057;-85
2023/12/20 14:24:15;;;;;;;11.50;6.72;;;;;;;;;;5074690;28;20060;-83
2023/12/20 14:26:42;;;;;;;10.50;6.30;;;;;;;;;;5074892;28;20059;-84
2023/12/20 14:29:09;;;;;;;14.45;6.72;;;;;;;;;;5074569;28;20045;-84